Time;durP1;ratioP1;P1;durP2;ratioP2;P2;SDS_P1;SDS_P2;PMS_P1;PMS_P2;Temp;Humidity;BMP_temperature;BMP_pressure;BME280_temperature;BME280_humidity;BME280_pressure;Samples;Min_cycle;Max_cycle;Signal;HPM_P1;HPM_P2
2023/07/01 00:00:01;;;;;;;5.57;3.50;;;;;;;19.67;71.86;99016.06;340012;28;19758;-65
2023/07/01 00:00:14;;;;;;;5.82;3.70;;;;;;;19.67;71.66;99016.06;343278;28;4633;-63
2023/07/01 00:00:27;;;;;;;6.05;3.55;;;;;;;19.65;71.80;99022.41;340757;28;4757;-64
2023/07/01 00:00:42;;;;;;;5.78;3.38;;;;;;;19.65;71.73;99017.16;343198;28;4569;-63
2023/07/01 00:00:54;;;;;;;5.43;3.30;;;;;;;19.64;71.61;99020.72;339916;28;18176;-62
2023/07/01 00:01:06;;;;;;;4.70;3.20;;;;;;;19.64;71.65;99020.72;339851;28;18207;-63
2023/07/01 00:01:18;;;;;;;3.97;2.88;;;;;;;19.60;71.72;99014.88;343157;28;4626;-63
2023/07/01 00:01:30;;;;;;;3.90;3.00;;;;;;;19.58;72.05;99021.22;340547;28;12122;-65
2023/07/01 00:01:42;;;;;;;4.15;3.13;;;;;;;19.59;71.96;99015.00;342168;28;4684;-64
2023/07/01 00:01:54;;;;;;;4.10;3.20;;;;;;;19.61;71.91;99020.97;342719;28;4748;-64
2023/07/01 00:02:06;;;;;;;3.97;3.13;;;;;;;19.61;71.88;99018.34;340470;28;18142;-64
2023/07/01 00:02:19;;;;;;;4.90;3.20;;;;;;;19.61;71.79;99020.97;343172;28;4638;-64
2023/07/01 00:02:31;;;;;;;5.53;3.25;;;;;;;19.61;71.85;99015.72;340254;28;18164;-64
2023/07/01 00:02:43;;;;;;;6.40;3.55;;;;;;;19.60;71.70;99019.28;342167;28;4630;-63
2023/07/01 00:02:55;;;;;;;5.80;3.30;;;;;;;19.61;71.69;99013.06;339599;28;11868;-65
2023/07/01 00:03:07;;;;;;;4.97;3.10;;;;;;;19.62;71.49;99022.66;342921;28;4755;-63
2023/07/01 00:03:19;;;;;;;3.90;2.80;;;;;;;19.61;71.62;99015.72;342857;28;4651;-64
2023/07/01 00:03:31;;;;;;;4.13;2.90;;;;;;;19.60;71.83;99014.03;340478;28;18108;-64
2023/07/01 00:03:43;;;;;;;5.90;3.20;;;;;;;19.59;71.52;99017.63;342110;28;4667;-64
2023/07/01 00:03:56;;;;;;;5.93;3.30;;;;;;;19.55;71.74;99017.88;340486;28;16799;-63
2023/07/01 00:04:08;;;;;;;5.53;3.08;;;;;;;19.52;71.75;99020.75;343008;28;4828;-64
2023/07/01 00:04:20;;;;;;;4.97;3.00;;;;;;;19.45;72.14;99021.38;342267;28;4643;-64
2023/07/01 00:04:32;;;;;;;5.13;3.00;;;;;;;19.47;71.95;99020.28;339608;28;17878;-64
2023/07/01 00:04:44;;;;;;;5.57;3.03;;;;;;;19.47;71.94;99020.28;341814;28;5377;-64
2023/07/01 00:04:59;;;;;;;6.13;3.23;;;;;;;19.45;72.22;99014.28;338797;28;18993;-64
2023/07/01 00:05:11;;;;;;;6.90;3.45;;;;;;;19.48;72.00;99016.69;338648;28;17779;-64
2023/07/01 00:05:23;;;;;;;5.80;3.40;;;;;;;19.47;72.01;99009.72;342407;28;4557;-63
2023/07/01 00:05:35;;;;;;;5.47;3.17;;;;;;;19.46;72.03;99013.34;340445;28;11923;-65
2023/07/01 00:05:47;;;;;;;5.50;3.10;;;;;;;19.47;72.01;99015.00;341804;28;4684;-63
2023/07/01 00:06:01;;;;;;;4.70;3.00;;;;;;;19.47;71.85;99020.28;342096;28;4557;-64
2023/07/01 00:06:14;;;;;;;3.70;2.80;;;;;;;19.46;72.00;99018.63;340012;28;18200;-64
2023/07/01 00:06:27;;;;;;;4.53;2.80;;;;;;;19.47;72.06;99020.28;338609;28;16344;-64
2023/07/01 00:06:41;;;;;;;5.35;2.90;;;;;;;19.43;72.05;99018.84;342042;28;4548;-64
2023/07/01 00:06:54;;;;;;;4.88;2.85;;;;;;;19.44;72.05;99015.28;338579;28;18366;-64
2023/07/01 00:07:07;;;;;;;4.00;2.92;;;;;;;19.45;72.05;99019.56;338627;28;17854;-64
2023/07/01 00:07:19;;;;;;;4.15;2.80;;;;;;;19.45;71.91;99016.09;341681;28;5808;-64
2023/07/01 00:07:31;;;;;;;5.32;2.80;;;;;;;19.45;71.81;99024.84;336907;28;18368;-65
2023/07/01 00:07:42;;;;;;;6.25;2.75;;;;;;;19.46;72.05;99017.78;340330;28;4581;-64
2023/07/01 00:07:55;;;;;;;5.63;3.00;;;;;;;19.44;72.12;99015.28;341352;28;5348;-64
2023/07/01 00:08:07;;;;;;;4.82;3.00;;;;;;;19.45;71.98;99016.94;338758;28;18435;-63
2023/07/01 00:08:19;;;;;;;4.40;2.88;;;;;;;19.46;71.83;99023.88;341556;28;5217;-63
2023/07/01 00:08:31;;;;;;;4.40;2.80;;;;;;;19.46;71.90;99008.06;339745;28;18367;-65
2023/07/01 00:08:43;;;;;;;3.90;2.60;;;;;;;19.46;72.04;99010.72;342579;28;4621;-64
2023/07/01 00:08:55;;;;;;;3.80;2.58;;;;;;;19.44;71.92;99015.28;342563;28;4764;-64
2023/07/01 00:09:09;;;;;;;4.60;2.60;;;;;;;19.44;71.84;99010.00;340318;28;19360;-63
2023/07/01 00:09:23;;;;;;;4.40;2.78;;;;;;;19.44;72.02;99009.16;338964;28;18829;-62
2023/07/01 00:09:35;;;;;;;3.58;2.70;;;;;;;19.42;72.01;99011.91;339221;28;11720;-63
2023/07/01 00:09:47;;;;;;;4.40;2.60;;;;;;;19.41;72.05;99012.88;341782;28;5244;-63
2023/07/01 00:10:00;;;;;;;7.05;2.70;;;;;;;19.41;71.88;99012.88;341588;28;4647;-64
2023/07/01 00:10:12;;;;;;;6.10;2.75;;;;;;;19.42;71.95;99017.19;339476;28;17775;-63
2023/07/01 00:10:25;;;;;;;4.20;2.67;;;;;;;19.39;72.16;99013.94;343147;28;4817;-63
2023/07/01 00:10:37;;;;;;;4.72;2.72;;;;;;;19.36;72.18;99012.41;340466;28;18341;-63
2023/07/01 00:10:49;;;;;;;5.82;2.70;;;;;;;19.32;72.30;99010.97;342579;28;4662;-63
2023/07/01 00:11:01;;;;;;;4.90;2.67;;;;;;;19.33;72.13;99008.19;340388;28;17638;-63
2023/07/01 00:11:13;;;;;;;5.28;2.60;;;;;;;19.34;72.25;99014.31;343247;28;4605;-63
2023/07/01 00:11:25;;;;;;;4.40;2.47;;;;;;;19.30;72.34;99012.88;340147;28;12918;-62
2023/07/01 00:11:38;;;;;;;4.43;2.50;;;;;;;19.34;72.32;99014.31;342910;28;4632;-64
2023/07/01 00:11:50;;;;;;;3.70;2.50;;;;;;;19.36;72.17;99007.13;342156;28;5718;-65
2023/07/01 00:12:03;;;;;;;3.80;2.57;;;;;;;19.34;72.11;99009.06;340048;28;18051;-64
2023/07/01 00:12:14;;;;;;;4.10;2.63;;;;;;;19.36;72.24;99009.78;342587;28;4654;-63
2023/07/01 00:12:26;;;;;;;3.90;2.70;;;;;;;19.37;72.22;99008.78;339580;28;17933;-63
2023/07/01 00:12:39;;;;;;;3.85;2.53;;;;;;;19.35;72.18;99000.16;342336;28;4654;-64
2023/07/01 00:12:51;;;;;;;3.25;2.42;;;;;;;19.34;72.19;99003.78;338955;28;16524;-65
2023/07/01 00:13:03;;;;;;;3.58;2.47;;;;;;;19.34;72.17;99003.78;342401;28;4652;-65
2023/07/01 00:13:15;;;;;;;3.60;2.53;;;;;;;19.34;72.26;99009.88;341593;28;11401;-65
2023/07/01 00:13:30;;;;;;;3.42;2.50;;;;;;;19.34;72.14;98999.34;340509;28;18387;-65
2023/07/01 00:13:42;;;;;;;2.92;2.33;;;;;;;19.32;72.27;99005.69;339449;28;17437;-65
2023/07/01 00:13:55;;;;;;;3.55;2.47;;;;;;;19.32;72.09;99005.69;341701;28;4641;-63
2023/07/01 00:14:07;;;;;;;3.30;2.40;;;;;;;19.28;72.34;99007.72;339762;28;18632;-64
2023/07/01 00:14:19;;;;;;;3.03;2.45;;;;;;;19.24;72.38;99008.94;342634;28;4570;-65
2023/07/01 00:14:31;;;;;;;5.07;2.50;;;;;;;19.22;72.64;99010.03;338822;28;18524;-65
2023/07/01 00:14:43;;;;;;;5.72;2.40;;;;;;;19.21;72.43;99003.91;341504;28;5213;-65
2023/07/01 00:14:55;;;;;;;5.25;2.33;;;;;;;19.19;72.57;99007.63;341345;28;5314;-62
2023/07/01 00:15:07;;;;;;;3.40;2.20;;;;;;;19.16;72.74;99006.06;338115;28;18072;-64
2023/07/01 00:15:19;;;;;;;4.13;2.15;;;;;;;19.15;72.79;99007.84;341284;28;5641;-64
2023/07/01 00:15:31;;;;;;;5.00;2.15;;;;;;;19.16;72.73;99003.44;340141;28;18363;-65
2023/07/01 00:15:43;;;;;;;4.47;2.40;;;;;;;19.12;72.71;99005.47;341945;28;5141;-64
2023/07/01 00:15:55;;;;;;;3.53;2.53;;;;;;;19.16;72.64;99006.91;341480;28;4828;-65
2023/07/01 00:16:08;;;;;;;3.45;2.65;;;;;;;19.16;72.80;99006.06;339912;28;18021;-64
2023/07/01 00:16:20;;;;;;;4.32;2.70;;;;;;;19.11;72.82;99003.78;342694;28;5165;-64
2023/07/01 00:16:32;;;;;;;4.22;2.80;;;;;;;19.10;72.93;99004.75;340112;28;18152;-64
2023/07/01 00:16:44;;;;;;;3.38;2.70;;;;;;;19.08;72.97;99006.66;342762;28;5170;-64
2023/07/01 00:16:58;;;;;;;4.25;2.50;;;;;;;19.02;73.15;99004.50;339805;28;18143;-63
2023/07/01 00:17:12;;;;;;;4.97;2.47;;;;;;;18.93;73.55;99005.22;342961;28;5531;-64
2023/07/01 00:17:25;;;;;;;3.67;2.53;;;;;;;18.95;73.61;99005.94;340163;28;18156;-64
2023/07/01 00:17:37;;;;;;;3.20;2.47;;;;;;;18.99;73.49;99010.00;340522;28;18296;-64
2023/07/01 00:17:49;;;;;;;3.15;2.40;;;;;;;18.94;73.62;99001.63;341921;28;5186;-63
2023/07/01 00:18:01;;;;;;;3.28;2.38;;;;;;;18.96;73.59;99005.00;339615;28;18367;-64
2023/07/01 00:18:13;;;;;;;3.63;2.47;;;;;;;18.99;73.52;99009.16;342772;28;4623;-64
2023/07/01 00:18:26;;;;;;;3.72;2.50;;;;;;;18.99;73.47;99010.00;339452;28;5136;-66
2023/07/01 00:18:40;;;;;;;4.10;2.50;;;;;;;19.00;73.64;99005.59;341358;28;5168;-65
2023/07/01 00:18:52;;;;;;;4.28;2.50;;;;;;;19.01;73.43;99008.09;339743;28;15073;-64
2023/07/01 00:19:04;;;;;;;4.72;2.53;;;;;;;19.01;73.39;99004.63;342563;28;5184;-63
2023/07/01 00:19:16;;;;;;;4.25;2.47;;;;;;;19.00;73.34;99006.44;339183;28;16415;-64
2023/07/01 00:19:28;;;;;;;3.38;2.42;;;;;;;19.00;73.37;99002.97;342616;28;4605;-65
2023/07/01 00:19:40;;;;;;;2.95;2.40;;;;;;;18.99;73.41;99004.72;342716;28;4782;-64
2023/07/01 00:19:52;;;;;;;3.60;2.37;;;;;;;18.99;73.35;99010.00;339500;28;17691;-64
2023/07/01 00:20:04;;;;;;;4.27;2.43;;;;;;;19.01;73.30;99013.34;341451;28;4752;-64
2023/07/01 00:20:16;;;;;;;5.20;2.60;;;;;;;19.01;73.35;99013.34;340078;28;18129;-64
2023/07/01 00:20:31;;;;;;;4.90;2.65;;;;;;;18.99;73.37;99010.00;342743;28;4505;-64
2023/07/01 00:20:43;;;;;;;5.38;2.58;;;;;;;18.98;73.27;99008.34;339001;28;17295;-62
2023/07/01 00:20:55;;;;;;;5.28;2.35;;;;;;;18.99;73.52;99015.28;339326;28;4685;-65
2023/07/01 00:21:08;;;;;;;4.13;2.22;;;;;;;18.93;73.47;99007.84;342791;28;5260;-63
2023/07/01 00:21:20;;;;;;;3.63;2.40;;;;;;;18.92;73.56;99011.44;342993;28;4629;-64
2023/07/01 00:21:32;;;;;;;3.53;2.42;;;;;;;18.86;73.83;99014.56;340294;28;18272;-63
2023/07/01 00:21:44;;;;;;;3.88;2.40;;;;;;;18.92;73.72;99011.44;342124;28;4489;-63
2023/07/01 00:21:56;;;;;;;3.85;2.38;;;;;;;18.89;73.78;99004.59;339958;28;16804;-65
2023/07/01 00:22:08;;;;;;;4.32;2.60;;;;;;;18.90;73.71;99005.47;343320;28;4726;-65
2023/07/01 00:22:20;;;;;;;3.97;2.60;;;;;;;18.89;73.63;99009.03;341772;28;5816;-65
2023/07/01 00:22:32;;;;;;;3.08;2.60;;;;;;;18.86;73.83;99009.28;338844;28;17915;-65
2023/07/01 00:22:44;;;;;;;4.07;2.67;;;;;;;18.82;74.13;99006.06;341938;28;5265;-65
2023/07/01 00:22:56;;;;;;;4.15;2.60;;;;;;;18.84;74.09;99006.78;340279;28;17182;-64
2023/07/01 00:23:08;;;;;;;4.15;2.58;;;;;;;18.86;73.97;99004.03;342757;28;4965;-63
2023/07/01 00:23:20;;;;;;;3.75;2.50;;;;;;;18.87;73.94;99008.31;342582;28;5791;-64
2023/07/01 00:23:32;;;;;;;3.83;2.60;;;;;;;18.86;73.89;99004.03;340448;28;18337;-64
2023/07/01 00:23:44;;;;;;;4.82;2.67;;;;;;;18.84;74.14;99000.69;342179;28;4565;-65
2023/07/01 00:23:56;;;;;;;4.72;2.60;;;;;;;18.82;73.93;99013.13;339908;28;16842;-65
2023/07/01 00:24:08;;;;;;;3.30;2.40;;;;;;;18.77;74.18;99010.78;342840;28;4538;-65
2023/07/01 00:24:20;;;;;;;2.78;2.20;;;;;;;18.76;74.11;99007.31;340536;28;11880;-64
2023/07/01 00:24:32;;;;;;;3.10;2.20;;;;;;;18.75;74.28;99008.28;342759;28;5367;-65
2023/07/01 00:24:44;;;;;;;4.25;2.30;;;;;;;18.77;74.28;99003.75;342096;28;4909;-64
2023/07/01 00:24:56;;;;;;;3.95;2.30;;;;;;;18.78;74.23;99007.22;339098;28;17660;-65
2023/07/01 00:25:08;;;;;;;3.30;2.20;;;;;;;18.74;74.25;99001.34;342653;28;5586;-65
2023/07/01 00:25:20;;;;;;;5.13;2.45;;;;;;;18.68;74.52;99006.25;340346;28;12329;-66
2023/07/01 00:25:32;;;;;;;5.40;2.50;;;;;;;18.68;74.48;99004.44;342552;28;4509;-64
2023/07/01 00:25:44;;;;;;;4.35;2.70;;;;;;;18.68;74.42;99007.06;342042;28;5212;-63
2023/07/01 00:25:56;;;;;;;3.63;2.60;;;;;;;18.73;74.06;99004.94;338643;28;18003;-65
2023/07/01 00:26:08;;;;;;;3.38;2.50;;;;;;;18.77;74.25;99002.88;342298;28;5257;-64
2023/07/01 00:26:20;;;;;;;2.90;2.35;;;;;;;18.80;74.22;99004.50;339960;28;11444;-65
2023/07/01 00:26:32;;;;;;;3.60;2.30;;;;;;;18.81;74.17;99000.91;343029;28;4652;-64
2023/07/01 00:26:44;;;;;;;3.83;2.28;;;;;;;18.82;74.18;99002.59;341245;28;4721;-63
2023/07/01 00:26:56;;;;;;;4.90;2.40;;;;;;;18.83;74.00;99004.25;338727;28;5267;-65
2023/07/01 00:27:08;;;;;;;4.13;2.60;;;;;;;18.81;74.29;99003.53;342923;28;4620;-65
2023/07/01 00:27:20;;;;;;;4.35;2.42;;;;;;;18.81;74.01;99007.00;340435;28;12066;-66
2023/07/01 00:27:32;;;;;;;4.70;2.45;;;;;;;18.80;74.05;99001.88;341604;28;4686;-65
2023/07/01 00:27:44;;;;;;;5.97;2.60;;;;;;;18.72;74.18;99000.63;341240;28;5277;-63
2023/07/01 00:27:56;;;;;;;5.82;2.60;;;;;;;18.75;74.17;98997.75;338792;28;18312;-64
2023/07/01 00:28:08;;;;;;;3.65;2.55;;;;;;;18.77;74.22;99000.25;341553;28;4658;-64
2023/07/01 00:28:21;;;;;;;3.53;2.58;;;;;;;18.76;74.25;99007.31;339226;28;11792;-66
2023/07/01 00:28:32;;;;;;;3.85;2.60;;;;;;;18.80;74.13;99004.50;342975;28;4820;-64
2023/07/01 00:28:45;;;;;;;4.07;2.60;;;;;;;18.83;74.12;99004.25;341833;28;4670;-63
2023/07/01 00:28:57;;;;;;;3.65;2.60;;;;;;;18.85;74.05;98999.69;339639;28;18330;-65
2023/07/01 00:29:09;;;;;;;3.53;2.50;;;;;;;18.85;74.00;99007.59;341699;28;4695;-64
2023/07/01 00:29:21;;;;;;;4.68;2.70;;;;;;;18.85;73.95;98997.91;340083;28;5760;-66
2023/07/01 00:29:33;;;;;;;4.53;2.60;;;;;;;18.89;73.83;99003.78;341645;28;5227;-64
2023/07/01 00:29:45;;;;;;;3.58;2.45;;;;;;;18.88;73.85;99002.94;341763;28;4593;-64
2023/07/01 00:29:57;;;;;;;3.35;2.47;;;;;;;18.88;73.76;99000.31;339774;28;18115;-63
2023/07/01 00:30:09;;;;;;;3.50;2.30;;;;;;;18.92;73.66;98998.28;342169;28;4727;-64
2023/07/01 00:30:21;;;;;;;3.25;2.17;;;;;;;18.87;73.56;99006.53;340252;28;16299;-64
2023/07/01 00:30:33;;;;;;;3.47;2.50;;;;;;;18.85;73.75;98992.63;342380;28;4844;-65
2023/07/01 00:30:45;;;;;;;3.45;2.50;;;;;;;18.87;73.73;98995.16;340456;28;5246;-64
2023/07/01 00:30:58;;;;;;;3.40;2.50;;;;;;;18.88;73.65;98996.84;338092;28;18148;-64
2023/07/01 00:31:10;;;;;;;3.78;2.58;;;;;;;18.88;73.69;99002.13;342442;28;5614;-64
2023/07/01 00:31:22;;;;;;;4.45;2.60;;;;;;;18.91;73.58;99007.13;339769;28;17733;-65
2023/07/01 00:31:34;;;;;;;4.03;2.50;;;;;;;18.91;73.64;99002.72;341919;28;4613;-65
2023/07/01 00:31:47;;;;;;;3.22;2.33;;;;;;;18.80;74.43;98999.25;337906;28;17858;-65
2023/07/01 00:31:59;;;;;;;3.60;2.40;;;;;;;18.81;74.08;99000.91;342173;28;5512;-64
2023/07/01 00:32:12;;;;;;;3.15;2.38;;;;;;;18.84;73.97;98995.41;338571;28;17680;-64
2023/07/01 00:32:24;;;;;;;3.35;2.40;;;;;;;18.84;73.89;99011.22;342491;28;4707;-65
2023/07/01 00:32:36;;;;;;;4.18;2.50;;;;;;;18.77;74.13;99002.88;339898;28;17879;-65
2023/07/01 00:32:48;;;;;;;3.63;2.40;;;;;;;18.74;74.05;99003.97;340755;28;4745;-64
2023/07/01 00:33:02;;;;;;;3.15;2.47;;;;;;;18.75;74.09;98997.75;339669;28;11536;-65
2023/07/01 00:33:14;;;;;;;3.55;2.63;;;;;;;18.74;74.09;99000.50;342861;28;5199;-65
2023/07/01 00:33:27;;;;;;;3.08;2.45;;;;;;;18.75;73.95;99003.03;339889;28;18262;-65
2023/07/01 00:33:39;;;;;;;3.75;2.33;;;;;;;18.71;74.08;98996.31;342408;28;5954;-63
2023/07/01 00:33:51;;;;;;;6.35;2.65;;;;;;;18.69;74.42;98997.38;338585;28;4640;-66
2023/07/01 00:34:02;;;;;;;6.57;2.70;;;;;;;18.68;74.50;98999.19;342656;28;4655;-65
2023/07/01 00:34:14;;;;;;;5.80;2.58;;;;;;;18.71;74.28;98995.47;342848;28;4675;-65
2023/07/01 00:34:26;;;;;;;4.45;2.38;;;;;;;18.70;74.29;99002.53;340325;28;18129;-65
2023/07/01 00:34:38;;;;;;;3.72;2.35;;;;;;;18.67;74.39;99000.16;342040;28;4534;-64
2023/07/01 00:34:50;;;;;;;3.83;2.35;;;;;;;18.70;74.33;98999.91;340737;28;4902;-66
2023/07/01 00:35:03;;;;;;;3.80;2.40;;;;;;;18.74;74.16;98998.72;341003;28;18528;-65
2023/07/01 00:35:15;;;;;;;3.60;2.50;;;;;;;18.79;74.07;99000.16;340476;28;4683;-65
2023/07/01 00:35:27;;;;;;;3.08;2.60;;;;;;;18.80;74.04;98997.44;338774;28;18385;-66
2023/07/01 00:35:39;;;;;;;3.15;2.50;;;;;;;18.81;73.83;99000.91;341054;28;4586;-63
2023/07/01 00:35:51;;;;;;;4.43;2.47;;;;;;;18.81;73.76;98998.25;339175;28;11214;-66
2023/07/01 00:36:03;;;;;;;4.47;2.30;;;;;;;18.85;73.67;98997.06;341254;28;5593;-64
2023/07/01 00:36:15;;;;;;;4.25;2.40;;;;;;;18.85;73.68;98999.69;342681;28;4627;-64
2023/07/01 00:36:27;;;;;;;4.85;2.60;;;;;;;18.85;73.33;98994.44;339900;28;18194;-65
2023/07/01 00:36:39;;;;;;;3.95;2.65;;;;;;;18.83;73.61;98998.97;341908;28;4846;-64
2023/07/01 00:36:51;;;;;;;4.47;2.53;;;;;;;18.84;73.93;99000.69;338269;28;18630;-65
2023/07/01 00:37:04;;;;;;;4.55;2.45;;;;;;;18.85;73.62;98991.81;341840;28;4644;-63
2023/07/01 00:37:16;;;;;;;4.20;2.30;;;;;;;18.84;73.58;99000.69;340182;28;4685;-66
2023/07/01 00:37:28;;;;;;;4.35;2.40;;;;;;;18.82;73.66;99002.59;342951;28;5278;-65
2023/07/01 00:37:40;;;;;;;3.75;2.40;;;;;;;18.84;73.63;98992.78;342659;28;5429;-64
2023/07/01 00:37:52;;;;;;;2.80;2.40;;;;;;;18.83;73.22;98998.97;339195;28;18396;-65
2023/07/01 00:38:04;;;;;;;2.83;2.28;;;;;;;18.81;73.58;98999.09;342998;28;4550;-65
2023/07/01 00:38:16;;;;;;;4.30;2.30;;;;;;;18.75;73.74;98995.13;338393;28;10572;-64
2023/07/01 00:38:28;;;;;;;4.65;2.30;;;;;;;18.72;73.95;98998.00;341733;28;4731;-64
2023/07/01 00:38:40;;;;;;;5.25;2.60;;;;;;;18.71;73.90;98991.06;342147;28;5173;-64
2023/07/01 00:38:52;;;;;;;4.95;2.63;;;;;;;18.73;73.93;98997.03;339142;28;18205;-65
2023/07/01 00:39:04;;;;;;;4.93;2.53;;;;;;;18.74;73.94;98995.25;342780;28;4684;-65
2023/07/01 00:39:16;;;;;;;3.85;2.38;;;;;;;18.74;73.96;98990.81;339219;28;12913;-63
2023/07/01 00:39:28;;;;;;;3.20;2.22;;;;;;;18.73;74.05;98998.81;342320;28;5155;-64
2023/07/01 00:39:40;;;;;;;3.00;2.28;;;;;;;18.75;73.94;98995.13;342590;28;4663;-64
2023/07/01 00:39:52;;;;;;;3.08;2.28;;;;;;;18.75;73.99;98991.63;338986;28;18103;-64
2023/07/01 00:40:04;;;;;;;3.28;2.40;;;;;;;18.74;74.03;98996.06;342383;28;4698;-64
2023/07/01 00:40:17;;;;;;;3.50;2.50;;;;;;;18.76;73.90;98993.34;337086;28;11445;-65
2023/07/01 00:40:28;;;;;;;3.58;2.40;;;;;;;18.76;74.02;98988.06;340540;28;4553;-65
2023/07/01 00:40:40;;;;;;;3.15;2.30;;;;;;;18.73;74.00;98997.03;340073;28;5017;-66
2023/07/01 00:40:52;;;;;;;3.63;2.15;;;;;;;18.69;74.26;98986.84;340168;28;16659;-64
2023/07/01 00:41:05;;;;;;;3.25;2.10;;;;;;;18.70;74.20;98994.63;342180;28;5164;-64
2023/07/01 00:41:20;;;;;;;4.30;2.25;;;;;;;18.71;73.96;98987.56;340174;28;11845;-64
2023/07/01 00:41:32;;;;;;;5.65;2.40;;;;;;;18.62;74.33;98993.56;339894;28;18059;-63
2023/07/01 00:41:52;;;;;;;5.72;2.38;;;;;;;18.59;74.55;98988.50;341416;28;4653;-64
2023/07/01 00:42:04;;;;;;;3.70;2.30;;;;;;;18.64;74.35;98989.00;339188;28;17810;-64
2023/07/01 00:42:16;;;;;;;4.50;2.30;;;;;;;18.63;74.31;98990.78;339847;28;17750;-65
2023/07/01 00:42:28;;;;;;;5.03;2.42;;;;;;;18.65;74.31;98990.66;342994;28;4792;-65
2023/07/01 00:42:40;;;;;;;4.60;2.30;;;;;;;18.66;74.30;98993.19;342986;28;4966;-65
2023/07/01 00:42:52;;;;;;;2.85;2.15;;;;;;;18.68;74.20;98991.28;339507;28;18679;-64
2023/07/01 00:43:04;;;;;;;3.13;2.08;;;;;;;18.71;74.01;98983.16;343238;28;5230;-65
2023/07/01 00:43:16;;;;;;;5.47;2.10;;;;;;;18.73;73.98;98990.91;340388;28;18276;-66
2023/07/01 00:43:28;;;;;;;5.28;2.10;;;;;;;18.74;73.73;98987.34;341937;28;4686;-65
2023/07/01 00:43:40;;;;;;;3.30;2.10;;;;;;;18.71;73.88;98993.69;342211;28;4549;-64
2023/07/01 00:43:52;;;;;;;3.83;2.40;;;;;;;18.70;74.02;98984.09;339122;28;17986;-64
2023/07/01 00:44:04;;;;;;;3.40;2.40;;;;;;;18.72;73.94;98987.47;342227;28;5170;-64
2023/07/01 00:44:18;;;;;;;2.60;2.25;;;;;;;18.71;74.28;98985.78;339072;28;18257;-65
2023/07/01 00:44:30;;;;;;;2.58;2.28;;;;;;;18.68;74.32;98986.00;342346;28;5616;-64
2023/07/01 00:44:42;;;;;;;2.88;2.28;;;;;;;18.67;74.29;98991.41;338609;28;17935;-65
2023/07/01 00:44:54;;;;;;;3.22;2.22;;;;;;;18.66;74.47;98987.09;341147;28;5383;-64
2023/07/01 00:45:06;;;;;;;3.58;2.30;;;;;;;18.68;74.26;98988.66;340227;28;5460;-66
2023/07/01 00:45:18;;;;;;;3.03;2.40;;;;;;;18.69;74.09;98987.72;343205;28;5195;-65
2023/07/01 00:45:30;;;;;;;2.88;2.40;;;;;;;18.69;74.14;98992.97;342869;28;5165;-65
2023/07/01 00:45:42;;;;;;;3.30;2.10;;;;;;;18.72;74.07;98992.72;338924;28;17963;-63
2023/07/01 00:45:55;;;;;;;3.72;2.13;;;;;;;18.72;73.94;98992.72;341920;28;4720;-64
2023/07/01 00:46:07;;;;;;;3.00;2.15;;;;;;;18.71;73.93;98991.06;339757;28;18186;-65
2023/07/01 00:46:21;;;;;;;3.63;2.33;;;;;;;18.71;74.06;98984.94;342284;28;5134;-62
2023/07/01 00:46:33;;;;;;;5.03;2.40;;;;;;;18.68;74.10;98990.44;338932;28;17616;-63
2023/07/01 00:46:46;;;;;;;6.35;2.42;;;;;;;18.64;74.09;98989.84;341442;28;4499;-64
2023/07/01 00:46:59;;;;;;;5.30;2.53;;;;;;;18.66;74.12;98987.09;338354;28;17948;-64
2023/07/01 00:47:11;;;;;;;5.07;2.50;;;;;;;18.68;74.11;98990.44;340058;28;11807;-66
2023/07/01 00:47:23;;;;;;;3.88;2.45;;;;;;;18.68;74.03;98987.81;337979;28;18110;-65
2023/07/01 00:47:37;;;;;;;3.85;2.40;;;;;;;18.71;73.89;98984.94;339009;28;4742;-65
2023/07/01 00:47:49;;;;;;;4.60;2.60;;;;;;;18.69;74.01;98992.97;336312;28;17885;-63
2023/07/01 00:48:02;;;;;;;4.80;2.70;;;;;;;18.65;74.07;98988.91;338299;28;18269;-63
2023/07/01 00:48:31;;;;;;;4.63;2.42;;;;;;;18.68;73.94;98995.72;341670;28;4664;-62
2023/07/01 00:48:44;;;;;;;3.45;2.60;;;;;;;18.65;74.13;98990.66;337510;28;17242;-63
2023/07/01 00:48:56;;;;;;;2.88;2.33;;;;;;;18.68;73.91;98991.28;341247;28;4725;-64
2023/07/01 00:49:08;;;;;;;3.20;2.30;;;;;;;18.69;73.83;98998.25;339720;28;18299;-64
2023/07/01 00:49:21;;;;;;;3.72;2.38;;;;;;;18.60;73.78;98993.66;342506;28;4681;-63
2023/07/01 00:49:33;;;;;;;3.85;2.33;;;;;;;18.55;73.91;98994.03;338239;28;19125;-64
2023/07/01 00:49:45;;;;;;;3.65;2.30;;;;;;;18.60;73.87;98993.66;341607;28;4732;-64
2023/07/01 00:49:58;;;;;;;3.20;2.28;;;;;;;18.64;74.10;98989.00;338051;28;18151;-63
2023/07/01 00:50:14;;;;;;;3.10;2.30;;;;;;;18.72;73.72;98994.53;342479;28;5396;-62
2023/07/01 00:50:26;;;;;;;3.55;2.30;;;;;;;18.69;73.75;98992.97;339807;28;18109;-66
2023/07/01 00:50:38;;;;;;;3.70;2.35;;;;;;;18.58;74.30;98989.47;340318;28;18108;-63
2023/07/01 00:50:54;;;;;;;3.55;2.40;;;;;;;18.58;74.32;98987.69;341569;28;5359;-64
2023/07/01 00:51:06;;;;;;;3.30;2.40;;;;;;;18.56;74.29;99000.94;339316;28;16495;-66
2023/07/01 00:51:19;;;;;;;2.67;2.17;;;;;;;18.53;74.51;98997.72;342016;28;4669;-64
2023/07/01 00:51:31;;;;;;;2.67;2.15;;;;;;;18.54;74.31;98991.50;342662;28;4651;-64
2023/07/01 00:51:43;;;;;;;2.70;2.17;;;;;;;18.56;74.46;98992.22;338458;28;18452;-64
2023/07/01 00:51:56;;;;;;;2.72;2.10;;;;;;;18.57;74.40;98993.88;342457;28;5252;-64
2023/07/01 00:52:08;;;;;;;3.22;2.20;;;;;;;18.57;74.36;98993.88;339017;28;17927;-64
2023/07/01 00:52:20;;;;;;;3.10;2.20;;;;;;;18.58;74.20;98989.47;341618;28;4681;-64
2023/07/01 00:52:32;;;;;;;3.90;2.20;;;;;;;18.57;74.25;98996.53;338987;28;18416;-62
2023/07/01 00:52:44;;;;;;;4.35;2.20;;;;;;;18.57;74.38;98996.53;342130;28;4701;-64
2023/07/01 00:52:56;;;;;;;3.30;2.17;;;;;;;18.51;74.51;98994.34;340255;28;13775;-64
2023/07/01 00:53:08;;;;;;;3.15;2.20;;;;;;;18.53;74.43;98992.44;343065;28;4635;-64
2023/07/01 00:53:22;;;;;;;2.88;2.20;;;;;;;18.54;74.34;98994.13;342785;28;5592;-63
2023/07/01 00:53:34;;;;;;;3.65;2.20;;;;;;;18.51;74.49;98995.22;340027;28;17538;-64
2023/07/01 00:53:46;;;;;;;4.30;2.28;;;;;;;18.54;74.43;98984.44;340667;28;4766;-66
2023/07/01 00:53:58;;;;;;;4.70;2.40;;;;;;;18.56;74.41;98994.84;339928;28;18984;-64
2023/07/01 00:54:10;;;;;;;3.50;2.30;;;;;;;18.59;74.40;98993.78;341939;28;5254;-64
2023/07/01 00:54:22;;;;;;;3.40;2.30;;;;;;;18.59;74.23;98991.97;338310;28;18237;-64
2023/07/01 00:54:35;;;;;;;3.75;2.28;;;;;;;18.61;74.27;98987.44;342483;28;4748;-64
2023/07/01 00:54:48;;;;;;;4.13;2.22;;;;;;;18.64;74.25;98997.75;338794;28;9689;-64
2023/07/01 00:55:00;;;;;;;3.55;2.30;;;;;;;18.66;73.99;98993.19;342076;28;4773;-62
2023/07/01 00:55:12;;;;;;;3.08;2.33;;;;;;;18.67;73.96;98989.63;338210;28;18485;-64
2023/07/01 00:55:24;;;;;;;3.58;2.17;;;;;;;18.66;73.98;98987.94;341333;28;4489;-64
2023/07/01 00:55:36;;;;;;;4.00;2.20;;;;;;;18.66;74.02;98993.19;338596;28;12440;-63
2023/07/01 00:55:48;;;;;;;4.57;2.42;;;;;;;18.63;73.96;98993.41;341882;28;4553;-64
2023/07/01 00:56:00;;;;;;;4.38;2.53;;;;;;;18.61;73.97;98995.31;342720;28;5315;-63
2023/07/01 00:56:12;;;;;;;3.33;2.30;;;;;;;18.63;73.93;98993.41;338938;28;18292;-63
2023/07/01 00:56:24;;;;;;;2.42;2.03;;;;;;;18.62;73.87;98986.50;342156;28;4660;-63
2023/07/01 00:56:38;;;;;;;2.10;1.90;;;;;;;18.57;74.14;98983.34;340084;28;18193;-64
2023/07/01 00:56:50;;;;;;;3.58;2.30;;;;;;;18.60;74.05;98985.78;341630;28;4564;-63
2023/07/01 00:57:04;;;;;;;4.97;2.42;;;;;;;18.63;74.21;98992.59;339092;28;4843;-64
2023/07/01 00:57:16;;;;;;;5.60;2.22;;;;;;;18.65;73.95;98991.53;341917;28;12085;-65
2023/07/01 00:57:28;;;;;;;4.55;2.15;;;;;;;18.67;73.94;98989.63;339376;28;17357;-64
2023/07/01 00:57:40;;;;;;;4.78;2.17;;;;;;;18.64;73.92;98997.75;341324;28;4758;-64
2023/07/01 00:57:52;;;;;;;4.85;2.25;;;;;;;18.65;73.95;98991.53;339398;28;18140;-65
2023/07/01 00:58:04;;;;;;;5.53;2.30;;;;;;;18.66;73.86;98987.94;342658;28;4895;-64
2023/07/01 00:58:16;;;;;;;4.13;2.20;;;;;;;18.65;73.79;98991.53;340445;28;4654;-64
2023/07/01 00:58:28;;;;;;;3.40;2.28;;;;;;;18.64;73.79;98989.00;337303;28;18220;-65
2023/07/01 00:58:40;;;;;;;3.00;2.20;;;;;;;18.64;73.70;98995.09;341948;28;5352;-65
2023/07/01 00:58:52;;;;;;;3.08;2.20;;;;;;;18.64;73.83;98989.84;339355;28;17976;-64
2023/07/01 00:59:04;;;;;;;2.97;2.07;;;;;;;18.64;73.82;98995.09;342057;28;4730;-65
2023/07/01 00:59:16;;;;;;;3.80;2.20;;;;;;;18.62;73.90;98991.75;342999;28;5118;-65